Terminal Aerodrome Forecast
Issued by NWS

Home | Current Version | Previous Version | Text Only | Print | Product List | Glossary On
Versions: 1 2 3 4 5 6 7 8 9 10 11 12 13 14 15 16 17 18 19 20
301
FTUS43 KAPX 142331
TAFPLN
TAF
KPLN 142331Z 1500/1524 29005KT P6SM OVC045
     FM150600 25005KT 6SM -SHSN OVC025
     FM150700 24005KT 2SM -SHSN OVC025
     FM151200 24004KT 1SM -SHSN OVC015
     FM151700 30008KT 1SM -SHSN OVC020
     FM151800 30009KT 1SM -SHSN OVC020
     FM152000 31012KT 4SM -SHSN OVC030=

USA.gov is the U.S. government's official web portal to all federal, state and local government web resources and services.